HK-0005 weather

Cheung Chau Helipad
Cheung Chau Island, Hong Kong

Public forecast

Using degrees Celsius for public forecast. Weather courtesy of forecast.io.

METAR (pilot weather report)

Closest report is Hong Kong International Airport, 9.0 nm (16.6 km) NW. Retrieved 2019/05/26 11:30 UTC (0 seconds ago):

VHHH 261130Z 14012KT 100V170 9999 FEW020 SCT035 27/24 Q1007 NOSIG

TAF (pilot weather forecast)

Forecast is more than 12 hours old.

Closest forecast is Hong Kong International Airport, 9.0 nm (16.6 km) NW. Retrieved 2019/05/25 00:22 UTC (1 day ago):

TAF VHHH 252300Z 2600/2706 14010KT 8000 FEW012 SCT022 TX30/2606Z TX30/2706Z TN26/2622Z TEMPO 2602/2607 VRB15G25KT 2500 TSRA SHRA FEW008CB SCT015 BKN040 TEMPO 2615/2621 2500 TSRA SHRA FEW008CB SCT015 TEMPO 2621/2703 3500 SHRA FEW012CB SCT020